Time;durP1;ratioP1;P1;durP2;ratioP2;P2;SDS_P1;SDS_P2;PMS_P1;PMS_P2;Temp;Humidity;BMP_temperature;BMP_pressure;BME280_temperature;BME280_humidity;BME280_pressure;Samples;Min_cycle;Max_cycle;Signal;HPM_P1;HPM_P2
2022/07/27 00:01:05;;;;;;;6.93;4.30;;;20.20;79.90;;;;;;5041088;28;20493;-48
2022/07/27 00:03:32;;;;;;;5.83;3.90;;;20.30;79.90;;;;;;5035620;28;21888;-48
2022/07/27 00:05:59;;;;;;;4.37;3.97;;;20.40;79.50;;;;;;5040297;28;21053;-48
2022/07/27 00:08:25;;;;;;;4.93;4.47;;;20.40;80.00;;;;;;5037017;28;20529;-48
2022/07/27 00:10:53;;;;;;;4.37;3.97;;;20.40;79.90;;;;;;5041419;28;20773;-48
2022/07/27 00:13:21;;;;;;;4.87;4.47;;;20.40;79.80;;;;;;5045719;28;20557;-48
2022/07/27 00:15:48;;;;;;;5.27;3.83;;;20.50;79.60;;;;;;5037790;28;21301;-48
2022/07/27 00:18:15;;;;;;;7.87;5.40;;;20.50;79.50;;;;;;5039504;28;21259;-48
2022/07/27 00:20:42;;;;;;;5.67;4.97;;;20.40;79.90;;;;;;5040791;28;20528;-48
2022/07/27 00:23:09;;;;;;;6.40;5.30;;;20.50;80.50;;;;;;5029647;28;20480;-47
2022/07/27 00:25:36;;;;;;;5.53;4.80;;;20.40;80.60;;;;;;5038206;28;20475;-47
2022/07/27 00:28:02;;;;;;;5.50;5.00;;;20.60;80.00;;;;;;5036874;28;20510;-48
2022/07/27 00:30:31;;;;;;;6.77;5.90;;;20.60;79.70;;;;;;5039523;28;20491;-48
2022/07/27 00:32:58;;;;;;;6.20;5.27;;;20.60;80.10;;;;;;5040109;28;20474;-49
2022/07/27 00:35:25;;;;;;;5.50;5.10;;;20.70;79.40;;;;;;5025946;28;20487;-48
2022/07/27 00:37:51;;;;;;;6.27;5.70;;;20.70;79.30;;;;;;5045269;28;20473;-48
2022/07/27 00:40:18;;;;;;;10.13;5.70;;;20.80;79.20;;;;;;5041877;28;20488;-48
2022/07/27 00:42:45;;;;;;;6.37;5.87;;;20.80;79.50;;;;;;5040830;28;20513;-48
2022/07/27 00:45:12;;;;;;;6.63;6.07;;;20.80;79.20;;;;;;5039832;28;20478;-48
2022/07/27 00:47:40;;;;;;;9.00;5.57;;;20.70;79.70;;;;;;5036837;28;20545;-47
2022/07/27 00:50:07;;;;;;;7.60;5.80;;;20.70;79.60;;;;;;5041451;28;20533;-48
2022/07/27 00:52:35;;;;;;;6.20;5.60;;;20.70;79.80;;;;;;5040613;28;20483;-48
2022/07/27 00:55:01;;;;;;;6.20;5.70;;;20.60;80.10;;;;;;5039701;28;20514;-49
2022/07/27 00:57:28;;;;;;;5.73;5.23;;;20.60;80.20;;;;;;5039051;28;20487;-48
2022/07/27 00:59:55;;;;;;;6.07;5.57;;;20.60;80.40;;;;;;5033989;28;21024;-48
2022/07/27 01:02:22;;;;;;;7.33;6.00;;;20.60;80.20;;;;;;5042819;28;20495;-48
2022/07/27 01:04:50;;;;;;;5.27;4.77;;;20.60;80.90;;;;;;5039985;28;21199;-48
2022/07/27 01:07:17;;;;;;;6.87;5.50;;;20.60;80.60;;;;;;5035111;28;20474;-48
2022/07/27 01:09:57;;;;;;;6.87;5.07;;;20.60;79.90;;;;;;5042746;28;20480;-48
2022/07/27 01:12:25;;;;;;;6.20;4.97;;;20.70;79.20;;;;;;5041498;28;20480;-48
2022/07/27 01:14:53;;;;;;;5.87;5.37;;;20.70;79.30;;;;;;5038137;28;20525;-48
2022/07/27 01:17:20;;;;;;;5.90;5.20;;;20.90;79.20;;;;;;5029646;28;20874;-48
2022/07/27 01:19:47;;;;;;;6.37;5.40;;;20.90;79.10;;;;;;5039422;28;20490;-48
2022/07/27 01:22:15;;;;;;;4.87;4.47;;;20.80;79.60;;;;;;5039134;28;20483;-48
2022/07/27 01:24:42;;;;;;;5.03;4.60;;;20.90;79.40;;;;;;5034025;28;20483;-48
2022/07/27 01:27:09;;;;;;;10.50;5.13;;;21.00;80.00;;;;;;5038605;28;20475;-48
2022/07/27 01:29:36;;;;;;;5.93;4.73;;;20.90;79.30;;;;;;5039686;28;20491;-48
2022/07/27 01:32:03;;;;;;;6.70;4.33;;;20.90;79.70;;;;;;5041482;28;20487;-48
2022/07/27 01:34:32;;;;;;;5.43;5.03;;;20.90;80.40;;;;;;5038536;28;20881;-49
2022/07/27 01:36:59;;;;;;;4.90;4.50;;;20.80;79.60;;;;;;5038024;28;20521;-48
2022/07/27 01:39:27;;;;;;;9.50;5.03;;;20.80;80.10;;;;;;5039518;28;20491;-48
2022/07/27 01:41:54;;;;;;;6.00;5.40;;;20.80;79.80;;;;;;5039589;28;20483;-49
2022/07/27 01:44:20;;;;;;;5.50;5.00;;;20.80;80.70;;;;;;5035767;28;20549;-48
2022/07/27 01:46:47;;;;;;;4.73;4.37;;;20.70;80.20;;;;;;5046211;28;20481;-48
2022/07/27 01:49:14;;;;;;;14.53;6.07;;;20.70;80.20;;;;;;5033529;28;20522;-48
2022/07/27 01:51:41;;;;;;;6.53;5.87;;;20.70;80.80;;;;;;5038200;28;20537;-48
2022/07/27 01:54:07;;;;;;;5.13;4.73;;;20.70;80.20;;;;;;5037450;28;20957;-48
2022/07/27 01:56:35;;;;;;;6.60;6.10;;;20.70;81.50;;;;;;5040876;28;20611;-48
2022/07/27 01:59:02;;;;;;;6.00;5.17;;;20.70;80.60;;;;;;5041223;28;21050;-48
2022/07/27 02:01:29;;;;;;;6.10;5.37;;;20.70;80.40;;;;;;5034001;28;20980;-48
2022/07/27 02:03:56;;;;;;;6.20;5.60;;;20.70;80.40;;;;;;5044234;28;20491;-48
2022/07/27 02:06:22;;;;;;;11.87;6.67;;;20.70;80.20;;;;;;5037959;28;20491;-48
2022/07/27 02:08:49;;;;;;;6.43;5.83;;;20.70;80.90;;;;;;5041436;28;20483;-48
2022/07/27 02:14:02;;;;;;;7.77;6.20;;;20.70;80.70;;;;;;5037436;28;20846;-48
2022/07/27 02:16:28;;;;;;;5.87;5.27;;;20.70;81.40;;;;;;5039676;28;20487;-48
2022/07/27 02:18:55;;;;;;;6.47;5.83;;;20.60;81.20;;;;;;5040628;28;21017;-48
2022/07/27 02:21:22;;;;;;;6.40;5.53;;;20.60;81.80;;;;;;5043134;28;20721;-50
2022/07/27 02:23:48;;;;;;;5.73;4.80;;;20.60;81.20;;;;;;5041790;28;20548;-48
2022/07/27 02:26:15;;;;;;;5.30;4.90;;;20.60;82.10;;;;;;5041824;28;20554;-48
2022/07/27 02:28:42;;;;;;;12.03;8.93;;;20.60;81.30;;;;;;5032157;28;20536;-48
2022/07/27 02:31:10;;;;;;;5.53;5.03;;;20.60;81.50;;;;;;5039554;28;20825;-48
2022/07/27 02:33:37;;;;;;;6.90;5.90;;;20.40;81.60;;;;;;5047721;28;20495;-48
2022/07/27 02:36:04;;;;;;;6.77;5.10;;;20.50;81.50;;;;;;5043307;28;20827;-48
2022/07/27 02:38:31;;;;;;;10.50;5.30;;;20.50;82.10;;;;;;5040233;28;20537;-48
2022/07/27 02:40:57;;;;;;;5.67;5.27;;;20.50;82.20;;;;;;5041823;28;20927;-48
2022/07/27 02:43:24;;;;;;;5.80;5.30;;;20.50;82.30;;;;;;5041004;28;20484;-48
2022/07/27 02:45:51;;;;;;;6.30;5.70;;;20.40;82.30;;;;;;5043306;28;20862;-48
2022/07/27 02:48:19;;;;;;;5.30;4.90;;;20.50;82.40;;;;;;5041463;28;20870;-52
2022/07/27 02:50:46;;;;;;;5.40;4.40;;;20.40;82.30;;;;;;5044051;28;21093;-48
2022/07/27 02:53:13;;;;;;;5.63;5.13;;;20.50;81.30;;;;;;5041150;28;20472;-48
2022/07/27 02:55:39;;;;;;;5.10;4.70;;;20.50;81.10;;;;;;5038727;28;20995;-48
2022/07/27 02:58:06;;;;;;;6.70;4.90;;;20.60;81.90;;;;;;5041085;28;20486;-48
2022/07/27 03:00:33;;;;;;;4.93;4.60;;;20.60;81.90;;;;;;5040565;28;20492;-48
2022/07/27 03:03:00;;;;;;;5.43;4.93;;;20.60;81.50;;;;;;5022883;28;20569;-48
2022/07/27 03:05:29;;;;;;;5.17;4.73;;;20.60;81.20;;;;;;5029683;28;20486;-49
2022/07/27 03:07:55;;;;;;;6.27;5.40;;;20.60;82.10;;;;;;5038788;28;20482;-48
2022/07/27 03:10:22;;;;;;;4.70;4.20;;;20.60;81.40;;;;;;5049874;28;20495;-48
2022/07/27 03:12:49;;;;;;;5.50;4.63;;;20.60;81.90;;;;;;5026558;28;20585;-48
2022/07/27 03:15:15;;;;;;;6.30;4.10;;;20.50;82.10;;;;;;5010029;28;20556;-48
2022/07/27 03:17:42;;;;;;;5.10;4.60;;;20.40;81.90;;;;;;5051154;28;20969;-48
2022/07/27 03:20:10;;;;;;;5.50;4.50;;;20.40;82.10;;;;;;5015624;28;20850;-48
2022/07/27 03:22:38;;;;;;;4.67;4.27;;;20.40;82.30;;;;;;5039246;28;20491;-48
2022/07/27 03:25:06;;;;;;;6.97;4.90;;;20.30;82.20;;;;;;5039593;28;20482;-48
2022/07/27 03:27:33;;;;;;;5.67;5.17;;;20.30;83.10;;;;;;5020995;28;20490;-48
2022/07/27 03:29:59;;;;;;;5.60;5.20;;;20.20;83.00;;;;;;5032527;28;20539;-48
2022/07/27 03:32:26;;;;;;;5.53;5.00;;;20.20;82.20;;;;;;5036348;28;20914;-48
2022/07/27 03:34:53;;;;;;;5.37;4.83;;;20.20;82.90;;;;;;5051819;28;20530;-48
2022/07/27 03:37:19;;;;;;;6.93;5.43;;;20.30;82.90;;;;;;5020983;28;20532;-48
2022/07/27 03:39:47;;;;;;;6.53;6.00;;;20.20;82.50;;;;;;5036078;28;20536;-48
2022/07/27 03:42:14;;;;;;;5.77;5.00;;;20.20;83.00;;;;;;5052908;28;20542;-48
2022/07/27 03:44:42;;;;;;;5.30;4.80;;;20.20;83.00;;;;;;5029866;28;20966;-48
2022/07/27 03:47:08;;;;;;;8.93;5.37;;;20.20;82.50;;;;;;5027988;28;20583;-48
2022/07/27 03:49:36;;;;;;;5.43;4.93;;;20.20;82.50;;;;;;5033591;28;20546;-48
2022/07/27 03:52:02;;;;;;;5.20;4.70;;;20.20;83.20;;;;;;5058161;28;20578;-48
2022/07/27 03:54:29;;;;;;;5.30;4.80;;;20.10;83.10;;;;;;5016213;28;20486;-47
2022/07/27 03:56:57;;;;;;;5.30;4.90;;;20.10;82.80;;;;;;5044668;28;21047;-48
2022/07/27 03:59:24;;;;;;;7.60;4.40;;;20.10;83.50;;;;;;5050785;28;20483;-48
2022/07/27 04:01:51;;;;;;;4.90;4.40;;;20.10;83.60;;;;;;5034761;28;20487;-48
2022/07/27 04:04:17;;;;;;;5.10;4.50;;;20.10;82.90;;;;;;5035817;28;20488;-48
2022/07/27 04:06:44;;;;;;;5.00;4.50;;;20.20;83.30;;;;;;5019575;28;20879;-48
2022/07/27 04:09:11;;;;;;;5.90;4.70;;;20.10;83.30;;;;;;5042635;28;20559;-48
2022/07/27 04:11:37;;;;;;;5.33;4.50;;;20.10;83.90;;;;;;5027739;28;20492;-48
2022/07/27 04:14:05;;;;;;;4.73;4.43;;;20.10;83.30;;;;;;5031428;28;21343;-48
2022/07/27 04:16:32;;;;;;;7.83;4.57;;;20.10;83.50;;;;;;5032085;28;20495;-48
2022/07/27 04:18:59;;;;;;;4.10;3.67;;;20.10;84.10;;;;;;5053019;28;20487;-48
2022/07/27 04:21:26;;;;;;;6.60;3.63;;;20.00;84.30;;;;;;5030835;28;20545;-48
2022/07/27 04:23:53;;;;;;;7.60;5.00;;;20.00;83.80;;;;;;5049979;28;20485;-48
2022/07/27 04:26:20;;;;;;;4.83;4.43;;;20.00;84.50;;;;;;5039698;28;20530;-47
2022/07/27 04:28:47;;;;;;;5.63;4.50;;;20.00;83.90;;;;;;5039905;28;20479;-48
2022/07/27 04:31:15;;;;;;;5.00;4.03;;;20.00;84.20;;;;;;5039639;28;20541;-48
2022/07/27 04:33:42;;;;;;;8.07;3.80;;;20.10;84.20;;;;;;5037978;28;20491;-48
2022/07/27 04:36:09;;;;;;;6.57;4.07;;;20.10;84.00;;;;;;5041789;28;20467;-48
2022/07/27 04:38:36;;;;;;;9.13;3.60;;;20.10;83.80;;;;;;5040892;28;20473;-47
2022/07/27 04:41:02;;;;;;;7.13;4.47;;;20.10;84.30;;;;;;5046412;28;20477;-48
2022/07/27 04:43:29;;;;;;;6.27;4.87;;;20.10;84.40;;;;;;5036606;28;20484;-48
2022/07/27 04:45:56;;;;;;;3.77;3.47;;;20.20;84.40;;;;;;5040406;28;20475;-48
2022/07/27 04:48:24;;;;;;;4.93;4.53;;;20.20;84.00;;;;;;5039427;28;20537;-48
2022/07/27 04:50:51;;;;;;;3.80;3.50;;;20.10;84.50;;;;;;5039665;28;20488;-48
2022/07/27 04:53:17;;;;;;;4.80;3.40;;;20.00;84.40;;;;;;5038241;28;20542;-48
2022/07/27 04:55:45;;;;;;;4.70;3.10;;;20.10;85.10;;;;;;5036786;28;20506;-48
2022/07/27 04:58:13;;;;;;;6.80;3.67;;;20.10;84.30;;;;;;5040105;28;21032;-48
2022/07/27 05:00:41;;;;;;;4.00;3.40;;;20.00;85.10;;;;;;5039097;28;20541;-48
2022/07/27 05:03:08;;;;;;;6.33;4.00;;;20.00;85.00;;;;;;5039506;28;20541;-48
2022/07/27 05:05:36;;;;;;;4.43;4.03;;;20.00;85.20;;;;;;5036893;28;20486;-49
2022/07/27 05:08:03;;;;;;;7.93;3.20;;;20.00;85.90;;;;;;5041513;28;20482;-48
2022/07/27 05:10:30;;;;;;;6.00;4.13;;;20.00;85.70;;;;;;5038061;28;20487;-48
2022/07/27 05:12:57;;;;;;;4.17;3.13;;;20.10;85.40;;;;;;5036188;28;20537;-48
2022/07/27 05:15:23;;;;;;;4.50;3.20;;;20.10;86.00;;;;;;5038492;28;20484;-48
2022/07/27 05:17:51;;;;;;;4.00;3.57;;;20.10;86.90;;;;;;5040553;28;20488;-48
2022/07/27 05:20:18;;;;;;;3.63;2.60;;;20.00;87.50;;;;;;5038715;28;20514;-49
2022/07/27 05:22:46;;;;;;;4.13;2.97;;;19.90;86.80;;;;;;5036943;28;21307;-48
2022/07/27 05:25:13;;;;;;;4.63;4.10;;;19.90;87.20;;;;;;5036474;28;21268;-48
2022/07/27 05:27:39;;;;;;;4.80;4.30;;;19.90;86.80;;;;;;5040734;28;20487;-48
2022/07/27 05:30:08;;;;;;;10.20;4.63;;;20.00;87.20;;;;;;5040498;28;20479;-48
2022/07/27 05:32:35;;;;;;;4.13;3.60;;;20.00;87.70;;;;;;5034983;28;20777;-48
2022/07/27 05:35:01;;;;;;;13.77;4.43;;;20.00;86.90;;;;;;5037698;28;21021;-48
2022/07/27 05:37:29;;;;;;;3.90;3.60;;;19.90;87.40;;;;;;5036962;28;20506;-48
2022/07/27 05:39:57;;;;;;;4.07;3.70;;;19.90;87.70;;;;;;5039930;28;20887;-48
2022/07/27 05:42:24;;;;;;;4.47;3.90;;;19.80;88.00;;;;;;5039233;28;21274;-48
2022/07/27 05:44:54;;;;;;;6.23;3.20;;;19.70;87.60;;;;;;5035601;28;20537;-48
2022/07/27 05:47:21;;;;;;;4.10;3.73;;;19.70;87.90;;;;;;5041415;28;20492;-48
2022/07/27 05:49:48;;;;;;;4.27;3.87;;;19.70;88.60;;;;;;5043536;28;20479;-48
2022/07/27 05:52:15;;;;;;;5.20;3.30;;;19.70;88.60;;;;;;5043175;28;20490;-48
2022/07/27 05:54:42;;;;;;;3.33;3.03;;;19.70;88.70;;;;;;5039361;28;20591;-48
2022/07/27 05:57:10;;;;;;;4.07;3.77;;;19.70;88.50;;;;;;5043554;28;20468;-48
2022/07/27 05:59:37;;;;;;;3.87;3.00;;;19.80;87.70;;;;;;5042556;28;20476;-47
2022/07/27 06:02:04;;;;;;;3.80;3.30;;;19.80;87.60;;;;;;5042955;28;20480;-47
2022/07/27 06:04:30;;;;;;;3.10;2.80;;;19.80;88.20;;;;;;5042281;28;20495;-48
2022/07/27 06:09:41;;;;;;;5.90;3.53;;;19.80;88.00;;;;;;5032382;28;20489;-48
2022/07/27 06:12:10;;;;;;;4.03;3.20;;;19.70;88.00;;;;;;5042373;28;20877;-48
2022/07/27 06:14:36;;;;;;;3.73;3.20;;;19.80;88.70;;;;;;5041023;28;22664;-48
2022/07/27 06:17:03;;;;;;;7.23;3.70;;;19.80;88.00;;;;;;5044829;28;20501;-48
2022/07/27 06:19:30;;;;;;;2.63;2.00;;;19.90;88.00;;;;;;5040545;28;20487;-48
2022/07/27 06:21:57;;;;;;;10.43;3.30;;;19.90;87.70;;;;;;5042235;28;20491;-48
2022/07/27 06:24:24;;;;;;;3.10;2.80;;;20.00;87.10;;;;;;5040438;28;20483;-48
2022/07/27 06:26:50;;;;;;;7.90;3.30;;;20.10;87.00;;;;;;5041638;28;20495;-48
2022/07/27 06:29:18;;;;;;;4.23;3.23;;;20.10;86.40;;;;;;5041108;28;20515;-48
2022/07/27 06:31:45;;;;;;;4.43;3.00;;;20.10;87.20;;;;;;5043519;28;20549;-51
2022/07/27 06:34:12;;;;;;;5.10;3.40;;;20.10;86.20;;;;;;5036358;28;21299;-48
2022/07/27 06:36:41;;;;;;;3.10;2.70;;;20.10;87.20;;;;;;5040351;28;20540;-48
2022/07/27 06:39:08;;;;;;;8.60;2.73;;;20.10;86.00;;;;;;5043565;28;20476;-48
2022/07/27 06:41:35;;;;;;;8.93;3.23;;;20.20;86.30;;;;;;5039679;28;20480;-48
2022/07/27 06:44:01;;;;;;;4.50;2.50;;;20.20;86.90;;;;;;5035514;28;20491;-48
2022/07/27 06:46:30;;;;;;;4.07;2.40;;;20.20;85.90;;;;;;5042409;28;20482;-48
2022/07/27 06:48:56;;;;;;;6.93;3.27;;;20.30;86.20;;;;;;5040425;28;20488;-48
2022/07/27 06:51:23;;;;;;;4.43;3.27;;;20.40;86.90;;;;;;5039202;28;20496;-48
2022/07/27 06:53:52;;;;;;;3.57;2.90;;;20.40;86.40;;;;;;5034407;28;20495;-48
2022/07/27 06:56:19;;;;;;;5.10;2.67;;;20.50;86.20;;;;;;5053040;28;21838;-48
2022/07/27 06:58:45;;;;;;;2.73;2.53;;;20.60;85.70;;;;;;5041015;28;20546;-49
2022/07/27 07:01:14;;;;;;;4.90;3.23;;;20.70;86.40;;;;;;5040207;28;20601;-48
2022/07/27 07:03:42;;;;;;;3.77;2.60;;;20.80;85.10;;;;;;5039754;28;20841;-48
2022/07/27 07:06:09;;;;;;;2.90;2.50;;;20.80;85.30;;;;;;5040161;28;20494;-48
2022/07/27 07:08:35;;;;;;;4.73;2.80;;;21.00;84.10;;;;;;5041310;28;21523;-48
2022/07/27 07:11:02;;;;;;;4.70;2.97;;;21.00;84.30;;;;;;5039890;28;20896;-48
2022/07/27 07:13:29;;;;;;;4.23;3.30;;;21.10;84.10;;;;;;5037650;28;20993;-48
2022/07/27 07:15:56;;;;;;;5.53;3.00;;;21.10;85.00;;;;;;5041978;28;20484;-49
2022/07/27 07:18:23;;;;;;;3.03;2.30;;;21.30;84.70;;;;;;5042169;28;20475;-48
2022/07/27 07:20:51;;;;;;;3.33;2.50;;;21.50;84.00;;;;;;5041060;28;20468;-49
2022/07/27 07:23:17;;;;;;;5.40;3.33;;;21.90;82.60;;;;;;5035334;28;20495;-49
2022/07/27 07:25:44;;;;;;;3.60;2.40;;;21.90;83.30;;;;;;5052607;28;20487;-48
2022/07/27 07:28:11;;;;;;;9.83;3.10;;;22.30;81.60;;;;;;5042173;28;20476;-49
2022/07/27 07:30:37;;;;;;;4.37;2.30;;;22.40;82.00;;;;;;5042274;28;20854;-48
2022/07/27 07:33:04;;;;;;;2.50;2.27;;;22.70;81.40;;;;;;5042102;28;20488;-50
2022/07/27 07:35:32;;;;;;;3.53;2.60;;;22.80;81.80;;;;;;5036950;28;20522;-51
2022/07/27 07:38:00;;;;;;;7.10;3.17;;;23.00;80.40;;;;;;5040177;28;20498;-50
2022/07/27 07:40:27;;;;;;;3.67;2.20;;;23.50;78.90;;;;;;5041364;28;20545;-50
2022/07/27 07:42:55;;;;;;;3.07;1.93;;;23.50;79.70;;;;;;5041979;28;20560;-50
2022/07/27 07:45:23;;;;;;;7.83;3.43;;;23.70;77.60;;;;;;5036206;28;20491;-56
2022/07/27 07:47:50;;;;;;;3.00;2.70;;;23.80;77.50;;;;;;5041191;28;20478;-51
2022/07/27 07:50:18;;;;;;;2.67;2.43;;;23.80;78.10;;;;;;5038613;28;20483;-51
2022/07/27 07:52:47;;;;;;;4.10;2.23;;;24.00;76.90;;;;;;5030267;28;20471;-50
2022/07/27 07:55:15;;;;;;;4.60;2.40;;;24.00;76.40;;;;;;5036123;28;20520;-51
2022/07/27 07:57:42;;;;;;;2.93;2.00;;;24.00;76.50;;;;;;5043068;28;20483;-51
2022/07/27 08:00:10;;;;;;;3.17;2.50;;;24.00;76.20;;;;;;5040390;28;20475;-50
2022/07/27 08:02:45;;;;;;;2.57;1.90;;;24.10;76.50;;;;;;5040259;28;20554;-51
2022/07/27 08:05:12;;;;;;;4.93;2.60;;;24.30;76.20;;;;;;5038614;28;20483;-50
2022/07/27 08:07:39;;;;;;;6.77;2.63;;;24.40;75.70;;;;;;5041933;28;20483;-50
2022/07/27 08:10:08;;;;;;;2.53;2.07;;;24.50;75.60;;;;;;5039095;28;20500;-50
2022/07/27 08:12:36;;;;;;;2.60;2.27;;;24.60;74.90;;;;;;5040519;28;20480;-51
2022/07/27 08:15:03;;;;;;;4.73;1.90;;;25.00;76.20;;;;;;5041057;28;20993;-51
2022/07/27 08:17:30;;;;;;;5.03;2.27;;;25.20;74.30;;;;;;5041003;28;20480;-50
2022/07/27 08:19:57;;;;;;;4.63;1.77;;;25.40;73.70;;;;;;5041126;28;20993;-50
2022/07/27 08:22:24;;;;;;;6.50;2.60;;;25.50;74.10;;;;;;5039422;28;20803;-51
2022/07/27 08:24:51;;;;;;;3.80;2.40;;;25.60;75.10;;;;;;5037831;28;20536;-51
2022/07/27 08:27:18;;;;;;;3.47;2.43;;;25.60;72.90;;;;;;5045013;28;20545;-50
2022/07/27 08:29:46;;;;;;;2.80;2.60;;;25.50;72.90;;;;;;5039152;28;20475;-51
2022/07/27 08:32:12;;;;;;;3.70;2.40;;;25.40;73.30;;;;;;5037934;28;20541;-51
2022/07/27 08:34:39;;;;;;;3.07;2.60;;;25.60;74.20;;;;;;5038387;28;20480;-51
2022/07/27 08:37:06;;;;;;;6.10;2.00;;;25.60;72.40;;;;;;5039881;28;20502;-50
2022/07/27 08:39:32;;;;;;;2.97;2.20;;;25.90;72.40;;;;;;5037555;28;20480;-51
2022/07/27 08:42:03;;;;;;;4.07;2.53;;;26.10;71.90;;;;;;5045496;28;20501;-50
2022/07/27 08:44:30;;;;;;;2.60;2.30;;;26.40;71.80;;;;;;5035516;28;20973;-52
2022/07/27 08:47:01;;;;;;;3.00;2.10;;;26.40;72.30;;;;;;5038585;28;20496;-51
2022/07/27 08:49:29;;;;;;;5.70;2.20;;;26.60;70.50;;;;;;5038772;28;20490;-50
2022/07/27 08:51:57;;;;;;;3.73;2.17;;;26.40;69.60;;;;;;5039705;28;20809;-51
2022/07/27 08:54:24;;;;;;;3.33;2.43;;;26.30;70.30;;;;;;5038459;28;20534;-51
2022/07/27 08:56:51;;;;;;;3.60;2.33;;;25.80;70.10;;;;;;5032626;28;21081;-51
2022/07/27 08:59:18;;;;;;;2.67;2.47;;;25.70;70.20;;;;;;5050798;28;21250;-51
2022/07/27 09:01:45;;;;;;;6.70;2.40;;;25.60;71.10;;;;;;5040708;28;20484;-53
2022/07/27 09:04:13;;;;;;;5.30;2.60;;;25.50;71.90;;;;;;5038660;28;20549;-52
2022/07/27 09:06:42;;;;;;;3.53;3.07;;;25.40;71.20;;;;;;5040767;28;20510;-50
2022/07/27 09:09:09;;;;;;;5.87;2.70;;;25.30;71.40;;;;;;5036812;28;20869;-50
2022/07/27 09:11:36;;;;;;;6.30;3.27;;;25.20;71.80;;;;;;5039038;28;20846;-51
2022/07/27 09:14:05;;;;;;;4.10;2.10;;;25.20;73.10;;;;;;5037874;28;20944;-51
2022/07/27 09:16:33;;;;;;;7.17;2.90;;;25.20;72.70;;;;;;5040821;28;20554;-52
2022/07/27 09:19:01;;;;;;;6.57;2.50;;;25.40;73.60;;;;;;5040029;28;20479;-51
2022/07/27 09:21:30;;;;;;;3.53;2.43;;;25.50;72.70;;;;;;5043307;28;20487;-50
2022/07/27 09:24:07;;;;;;;4.77;2.20;;;25.70;72.30;;;;;;5036872;28;20515;-51
2022/07/27 09:26:34;;;;;;;3.70;2.70;;;25.70;71.60;;;;;;5036705;28;20556;-50
2022/07/27 09:29:03;;;;;;;9.23;2.80;;;25.70;71.60;;;;;;5038617;28;20897;-50
2022/07/27 09:31:30;;;;;;;7.73;2.73;;;25.90;71.00;;;;;;5038505;28;20492;-50
2022/07/27 09:33:58;;;;;;;6.23;2.93;;;26.00;70.90;;;;;;5034094;28;20488;-52
2022/07/27 09:36:27;;;;;;;6.00;3.27;;;26.20;71.10;;;;;;5036345;28;20511;-50
2022/07/27 09:38:57;;;;;;;6.57;2.53;;;26.80;70.60;;;;;;5040549;28;21084;-51
2022/07/27 09:41:25;;;;;;;6.03;2.70;;;27.00;70.00;;;;;;5027909;28;21044;-52
2022/07/27 09:43:53;;;;;;;4.53;2.80;;;27.20;68.70;;;;;;5027429;28;20488;-55
2022/07/27 09:46:29;;;;;;;4.70;2.67;;;27.30;68.50;;;;;;5037870;28;20553;-51
2022/07/27 09:48:56;;;;;;;5.27;3.07;;;27.20;67.70;;;;;;5035940;28;20467;-50
2022/07/27 09:51:24;;;;;;;5.13;2.70;;;27.20;68.50;;;;;;5037664;28;20483;-51
2022/07/27 09:53:51;;;;;;;3.60;2.20;;;27.10;68.00;;;;;;5020547;28;21311;-52
2022/07/27 09:56:26;;;;;;;4.07;2.40;;;27.00;68.20;;;;;;5038825;28;20480;-52
2022/07/27 09:58:55;;;;;;;7.70;2.87;;;27.00;67.60;;;;;;5040757;28;21116;-51
2022/07/27 10:01:23;;;;;;;9.90;2.47;;;27.00;68.80;;;;;;5031411;28;20898;-50
2022/07/27 10:03:51;;;;;;;2.80;2.60;;;27.00;67.20;;;;;;5041582;28;20487;-51
2022/07/27 10:06:18;;;;;;;4.27;3.30;;;26.90;67.30;;;;;;5036091;28;20478;-52
2022/07/27 10:08:47;;;;;;;5.73;2.97;;;26.70;67.60;;;;;;5040720;28;20534;-51
2022/07/27 10:11:15;;;;;;;4.10;2.50;;;26.60;68.30;;;;;;5038388;28;20518;-50
2022/07/27 10:13:44;;;;;;;7.53;2.83;;;26.50;67.40;;;;;;5037330;28;20510;-49
2022/07/27 10:16:14;;;;;;;2.70;2.50;;;26.20;66.50;;;;;;5037045;28;20549;-50
2022/07/27 10:18:54;;;;;;;2.83;2.60;;;25.90;67.00;;;;;;5042032;28;20936;-50
2022/07/27 10:21:23;;;;;;;5.00;3.10;;;25.50;67.80;;;;;;5037163;28;20545;-50
2022/07/27 10:23:57;;;;;;;4.67;2.90;;;25.50;68.50;;;;;;5033317;28;21829;-50
2022/07/27 10:26:33;;;;;;;5.73;3.47;;;25.60;69.60;;;;;;5037627;28;20474;-50
2022/07/27 10:29:04;;;;;;;3.70;3.00;;;25.60;67.80;;;;;;5036813;28;20479;-51
2022/07/27 10:31:33;;;;;;;4.70;2.83;;;25.60;68.70;;;;;;5047369;28;20479;-51
2022/07/27 10:34:01;;;;;;;3.03;2.50;;;25.80;68.50;;;;;;5037831;28;20472;-50
2022/07/27 10:36:52;;;;;;;3.30;2.67;;;25.90;68.20;;;;;;5028096;28;20537;-50
2022/07/27 10:39:35;;;;;;;4.70;2.47;;;25.90;69.30;;;;;;5038862;28;20472;-51
2022/07/27 10:42:25;;;;;;;4.53;3.10;;;25.90;67.60;;;;;;5041520;28;20486;-51
2022/07/27 10:44:56;;;;;;;7.10;2.70;;;26.20;68.90;;;;;;5041234;28;20476;-51
2022/07/27 10:47:34;;;;;;;3.97;2.60;;;26.40;66.70;;;;;;5042929;28;20556;-51
2022/07/27 10:50:23;;;;;;;4.97;2.60;;;26.40;68.30;;;;;;5041205;28;20925;-51
2022/07/27 10:52:52;;;;;;;5.33;2.67;;;26.60;66.90;;;;;;5042303;28;20988;-51
2022/07/27 10:55:44;;;;;;;3.97;2.73;;;26.70;65.50;;;;;;5038324;28;20483;-51
2022/07/27 10:58:46;;;;;;;3.20;2.10;;;26.80;65.90;;;;;;5040946;28;20506;-50
2022/07/27 11:01:14;;;;;;;3.73;3.43;;;26.80;65.40;;;;;;5032556;28;21288;-50
2022/07/27 11:03:46;;;;;;;5.97;2.60;;;26.70;65.70;;;;;;5040299;28;20490;-50
2022/07/27 11:06:20;;;;;;;3.33;2.83;;;26.90;65.60;;;;;;5042045;28;20488;-51
2022/07/27 11:08:49;;;;;;;3.37;3.07;;;27.00;66.20;;;;;;5043325;28;20506;-51
2022/07/27 11:11:18;;;;;;;3.30;2.43;;;27.30;65.70;;;;;;5041230;28;20490;-51
2022/07/27 11:13:45;;;;;;;10.67;2.83;;;27.30;66.10;;;;;;5039429;28;20979;-51
2022/07/27 11:16:16;;;;;;;4.63;2.67;;;27.30;64.80;;;;;;5039583;28;21221;-52
2022/07/27 11:18:51;;;;;;;5.20;2.60;;;27.20;63.70;;;;;;5040060;28;20510;-50
2022/07/27 11:21:19;;;;;;;2.47;2.20;;;27.30;63.20;;;;;;5039254;28;20949;-51
2022/07/27 11:23:47;;;;;;;3.70;2.30;;;27.50;64.30;;;;;;5037975;28;20483;-51
2022/07/27 11:26:14;;;;;;;4.13;2.10;;;27.60;65.10;;;;;;5041995;28;21059;-52
2022/07/27 11:28:42;;;;;;;2.97;2.33;;;27.60;64.50;;;;;;5042112;28;20479;-50
2022/07/27 11:31:12;;;;;;;3.43;2.30;;;27.60;63.30;;;;;;5044437;28;20476;-51
2022/07/27 11:33:54;;;;;;;4.93;2.50;;;27.50;63.50;;;;;;5039193;28;20907;-50
2022/07/27 11:36:22;;;;;;;4.23;2.10;;;27.40;62.50;;;;;;5039247;28;20485;-50
2022/07/27 11:38:51;;;;;;;6.70;2.20;;;27.10;62.70;;;;;;5041469;28;20488;-50
2022/07/27 11:41:23;;;;;;;21.33;4.50;;;27.20;63.50;;;;;;5040075;28;20880;-50
2022/07/27 11:43:49;;;;;;;3.33;2.70;;;27.20;64.30;;;;;;5037541;28;20492;-51
2022/07/27 11:46:22;;;;;;;2.30;1.97;;;27.40;63.10;;;;;;5041557;28;21027;-50
2022/07/27 11:48:54;;;;;;;3.70;2.23;;;27.40;64.20;;;;;;5035113;28;20571;-50
2022/07/27 11:51:21;;;;;;;6.40;2.27;;;28.20;61.50;;;;;;5034657;28;21019;-50
2022/07/27 11:53:48;;;;;;;4.30;2.50;;;28.50;60.10;;;;;;5046398;28;20522;-50
2022/07/27 11:56:22;;;;;;;3.70;2.07;;;28.50;59.70;;;;;;5039377;28;20537;-50
2022/07/27 11:59:00;;;;;;;4.57;2.37;;;29.00;58.40;;;;;;5028381;28;20476;-50
2022/07/27 12:01:29;;;;;;;2.77;1.70;;;29.10;59.30;;;;;;5036328;28;20505;-50
2022/07/27 12:04:11;;;;;;;5.90;2.50;;;28.90;56.60;;;;;;5042479;28;21088;-51
2022/07/27 12:06:39;;;;;;;4.67;2.00;;;28.80;56.30;;;;;;5027553;28;20483;-52
2022/07/27 12:09:07;;;;;;;2.63;2.00;;;28.50;56.30;;;;;;5047881;28;20476;-50
2022/07/27 12:11:50;;;;;;;2.13;1.93;;;28.60;58.10;;;;;;5027782;28;20525;-50
2022/07/27 12:14:17;;;;;;;3.13;1.97;;;29.10;59.40;;;;;;5019541;28;20464;-51
2022/07/27 12:16:44;;;;;;;3.50;1.80;;;29.40;58.80;;;;;;5047308;28;21094;-51
2022/07/27 12:19:12;;;;;;;4.17;2.60;;;29.40;58.00;;;;;;5021989;28;20585;-52
2022/07/27 12:21:39;;;;;;;4.47;1.90;;;29.20;56.10;;;;;;5022051;28;21025;-50
2022/07/27 12:24:07;;;;;;;2.73;1.80;;;29.30;56.70;;;;;;5021765;28;20479;-51
2022/07/27 12:26:33;;;;;;;2.30;1.90;;;29.20;56.70;;;;;;5029115;28;20480;-50
2022/07/27 12:29:08;;;;;;;4.07;2.20;;;29.30;57.70;;;;;;5023213;28;20458;-50
2022/07/27 12:31:36;;;;;;;5.83;2.50;;;29.40;57.50;;;;;;5024218;28;20439;-50
2022/07/27 12:34:05;;;;;;;3.33;2.57;;;;;;;;;;5038643;28;20507;-51
2022/07/27 12:36:33;;;;;;;4.50;2.13;;;29.70;56.80;;;;;;5027521;28;20511;-50
2022/07/27 12:39:00;;;;;;;3.20;2.13;;;29.80;56.30;;;;;;5007814;28;20513;-51
2022/07/27 12:41:29;;;;;;;2.50;2.00;;;29.60;55.00;;;;;;5039947;28;20480;-51
2022/07/27 12:44:07;;;;;;;5.60;2.40;;;29.60;55.60;;;;;;5022827;28;20570;-53
2022/07/27 12:46:50;;;;;;;6.13;1.93;;;29.60;56.10;;;;;;5020932;28;20475;-50
2022/07/27 12:49:17;;;;;;;2.70;1.50;;;29.70;55.90;;;;;;5033855;28;20441;-51
2022/07/27 12:51:45;;;;;;;6.00;1.90;;;29.80;56.50;;;;;;5036618;28;21350;-51
2022/07/27 12:54:12;;;;;;;7.23;2.00;;;29.90;57.40;;;;;;5020137;28;21872;-50
2022/07/27 12:56:39;;;;;;;6.73;2.27;;;30.40;56.40;;;;;;5027670;28;20833;-50
2022/07/27 12:59:06;;;;;;;4.13;1.97;;;30.50;55.50;;;;;;5015350;28;20554;-50